createdAt,value
2022-08-20T00:02:16.643Z,16.67
2022-08-20T00:04:46.066Z,16.58
2022-08-20T00:07:15.144Z,18.95
2022-08-20T00:09:44.684Z,16.92
2022-08-20T00:12:16.851Z,17.73
2022-08-20T00:14:47.183Z,18.77
2022-08-20T00:17:15.624Z,18.30
2022-08-20T00:19:44.590Z,17.63
2022-08-20T00:22:13.585Z,19.02
2022-08-20T00:24:42.580Z,18.45
2022-08-20T00:27:10.985Z,16.40
2022-08-20T00:29:40.094Z,20.10
2022-08-20T00:32:09.876Z,18.52
2022-08-20T00:34:38.686Z,20.85
2022-08-20T00:37:07.537Z,20.30
2022-08-20T00:39:37.089Z,20.52
2022-08-20T00:42:05.887Z,22.02
2022-08-20T00:44:35.066Z,21.00
2022-08-20T00:47:04.273Z,21.13
2022-08-20T00:49:34.828Z,22.73
2022-08-20T00:52:09.324Z,21.10
2022-08-20T00:54:42.690Z,22.45
2022-08-20T00:57:14.229Z,24.50
2022-08-20T00:59:44.703Z,23.33
2022-08-20T01:02:15.387Z,23.42
2022-08-20T01:04:48.837Z,23.25
2022-08-20T01:07:20.427Z,24.27
2022-08-20T01:09:58.788Z,21.98
2022-08-20T01:12:30.612Z,23.75
2022-08-20T01:15:02.370Z,22.90
2022-08-20T01:17:36.295Z,23.85
2022-08-20T01:20:11.604Z,25.35
2022-08-20T01:23:03.578Z,26.00
2022-08-20T01:25:44.461Z,21.98
2022-08-20T01:28:15.959Z,23.95
2022-08-20T01:30:44.876Z,23.73
2022-08-20T01:33:13.777Z,25.48
2022-08-20T01:35:44.677Z,24.95
2022-08-20T01:38:14.738Z,23.67
2022-08-20T01:41:17.116Z,22.27
2022-08-20T01:43:48.094Z,22.83
2022-08-20T01:46:19.257Z,24.48
2022-08-20T01:51:19.325Z,24.77
2022-08-20T01:53:49.801Z,25.08
2022-08-20T01:56:23.211Z,26.92
2022-08-20T01:58:56.028Z,24.95
2022-08-20T02:01:33.942Z,25.50
2022-08-20T02:04:16.711Z,24.70
2022-08-20T02:06:56.784Z,25.70
2022-08-20T02:09:27.144Z,26.63
2022-08-20T02:11:58.064Z,25.80
2022-08-20T02:14:26.827Z,26.15
2022-08-20T02:16:57.329Z,23.98
2022-08-20T02:19:29.191Z,27.55
2022-08-20T02:22:02.749Z,25.55
2022-08-20T02:24:31.549Z,26.63
2022-08-20T02:27:01.657Z,25.65
2022-08-20T02:29:30.456Z,25.92
2022-08-20T02:32:24.445Z,26.85
2022-08-20T02:34:47.698Z,27.50
2022-08-20T02:37:16.797Z,26.25
2022-08-20T02:39:45.758Z,27.13
2022-08-20T02:42:15.505Z,26.90
2022-08-20T02:44:44.433Z,28.80
2022-08-20T02:47:12.732Z,25.65
2022-08-20T02:49:41.457Z,26.60
2022-08-20T02:52:09.931Z,26.83
2022-08-20T02:54:38.740Z,26.33
2022-08-20T02:57:12.942Z,26.15
2022-08-20T02:59:44.096Z,25.20
2022-08-20T03:02:12.895Z,26.63
2022-08-20T03:04:42.145Z,26.75
2022-08-20T03:07:12.260Z,26.35
2022-08-20T03:09:41.069Z,24.67
2022-08-20T03:12:09.741Z,26.55
2022-08-20T03:14:38.617Z,25.58
2022-08-20T03:17:08.327Z,24.42
2022-08-20T03:19:37.060Z,26.63
2022-08-20T03:22:05.950Z,25.73
2022-08-20T03:24:34.944Z,24.85
2022-08-20T03:27:03.218Z,24.60
2022-08-20T03:29:32.120Z,24.63
2022-08-20T03:32:03.848Z,25.10
2022-08-20T03:34:37.401Z,24.83
2022-08-20T03:37:06.006Z,23.95
2022-08-20T03:39:34.857Z,25.60
2022-08-20T03:42:03.225Z,25.25
2022-08-20T03:44:32.096Z,25.67
2022-08-20T03:47:00.566Z,25.95
2022-08-20T03:49:29.360Z,25.38
2022-08-20T03:51:59.888Z,26.00
2022-08-20T03:54:31.776Z,25.80
2022-08-20T03:57:02.273Z,25.58
2022-08-20T03:59:33.288Z,25.42
2022-08-20T04:02:01.807Z,24.17
2022-08-20T04:04:30.199Z,24.33
2022-08-20T04:06:59.808Z,24.92
2022-08-20T04:09:28.958Z,27.88
2022-08-20T04:12:00.989Z,25.52
2022-08-20T04:14:30.087Z,24.85
2022-08-20T04:16:58.786Z,24.20
2022-08-20T04:19:31.211Z,24.50
2022-08-20T04:22:04.003Z,27.58
2022-08-20T04:24:32.767Z,24.13
2022-08-20T04:27:03.150Z,23.90
2022-08-20T04:29:34.893Z,25.77
2022-08-20T04:32:06.407Z,23.83
2022-08-20T04:37:06.388Z,23.20
2022-08-20T04:40:06.540Z,21.90
2022-08-20T04:42:36.654Z,23.50
2022-08-20T04:45:06.783Z,23.27
2022-08-20T04:47:36.224Z,23.02
2022-08-20T04:50:05.304Z,22.20
2022-08-20T04:52:36.176Z,23.33
2022-08-20T04:55:05.677Z,21.75
2022-08-20T04:57:36.792Z,23.47
2022-08-20T05:00:07.552Z,22.35
2022-08-20T05:02:36.520Z,23.50
2022-08-20T05:05:07.872Z,21.95
2022-08-20T05:07:42.465Z,22.48
2022-08-20T05:10:13.572Z,21.20
2022-08-20T05:12:43.590Z,22.73
2022-08-20T05:15:26.307Z,26.67
2022-08-20T05:17:58.705Z,22.35
2022-08-20T05:20:28.652Z,21.08
2022-08-20T05:22:59.182Z,22.25
2022-08-20T05:25:30.141Z,20.95
2022-08-20T05:28:00.805Z,22.05
2022-08-20T05:30:33.355Z,22.30
2022-08-20T05:33:04.443Z,22.63
2022-08-20T05:35:38.547Z,26.25
2022-08-20T05:38:14.716Z,21.23
2022-08-20T05:40:43.845Z,21.23
2022-08-20T05:43:13.056Z,21.52
2022-08-20T05:45:42.881Z,20.77
2022-08-20T05:48:14.192Z,21.92
2022-08-20T05:50:44.756Z,21.08
2022-08-20T05:53:14.836Z,20.42
2022-08-20T05:55:43.744Z,21.42
2022-08-20T05:58:18.972Z,20.58
2022-08-20T06:00:48.429Z,19.92
2022-08-20T06:03:34.781Z,21.10
2022-08-20T06:06:05.384Z,19.42
2022-08-20T06:08:48.460Z,19.95
2022-08-20T06:11:16.922Z,20.20
2022-08-20T06:13:45.453Z,20.10
2022-08-20T06:16:13.739Z,19.75
2022-08-20T06:18:42.513Z,18.75
2022-08-20T06:21:11.553Z,25.67
2022-08-20T06:23:54.370Z,25.58
2022-08-20T06:26:30.480Z,19.95
2022-08-20T06:29:00.176Z,18.25
2022-08-20T06:31:29.385Z,18.40
2022-08-20T06:33:58.019Z,17.95
2022-08-20T06:36:27.703Z,18.48
2022-08-20T06:38:56.143Z,18.55
2022-08-20T06:41:35.833Z,17.65
2022-08-20T06:44:07.574Z,16.02
2022-08-20T06:46:36.630Z,18.83
2022-08-20T06:49:05.915Z,18.23
2022-08-20T06:51:34.979Z,16.90
2022-08-20T06:54:03.466Z,16.98
2022-08-20T06:56:32.389Z,17.33
2022-08-20T06:59:01.872Z,16.38
2022-08-20T07:01:32.318Z,17.00
2022-08-20T07:04:00.676Z,15.30
2022-08-20T07:06:28.981Z,15.02
2022-08-20T07:08:58.021Z,14.73
2022-08-20T07:11:28.490Z,15.73
2022-08-20T07:13:58.984Z,14.73
2022-08-20T07:16:28.011Z,13.93
2022-08-20T07:18:58.468Z,13.52
2022-08-20T07:21:26.783Z,14.45
2022-08-20T07:23:55.277Z,12.98
2022-08-20T07:26:24.474Z,14.23
2022-08-20T07:28:53.273Z,13.32
2022-08-20T07:31:39.455Z,13.02
2022-08-20T07:34:13.812Z,14.43
2022-08-20T07:36:43.461Z,12.45
2022-08-20T07:39:15.928Z,12.38
2022-08-20T07:41:49.058Z,12.48
2022-08-20T07:44:30.767Z,13.00
2022-08-20T07:47:00.435Z,12.57
2022-08-20T07:49:30.477Z,10.57
2022-08-20T07:51:58.822Z,12.15
2022-08-20T07:54:30.349Z,12.13
2022-08-20T07:57:02.831Z,13.77
2022-08-20T07:59:31.798Z,11.95
2022-08-20T08:02:00.385Z,12.43
2022-08-20T08:04:30.041Z,11.90
2022-08-20T08:07:00.303Z,12.55
2022-08-20T08:09:29.593Z,11.20
2022-08-20T08:12:00.959Z,10.85
2022-08-20T08:14:32.253Z,11.98
2022-08-20T08:17:04.676Z,11.23
2022-08-20T08:19:38.876Z,11.40
2022-08-20T08:22:11.856Z,10.40
2022-08-20T08:24:41.768Z,13.57
2022-08-20T08:27:25.737Z,11.23
2022-08-20T08:29:54.568Z,11.68
2022-08-20T08:32:24.636Z,11.50
2022-08-20T08:34:54.569Z,11.27
2022-08-20T08:37:23.451Z,10.82
2022-08-20T08:39:52.037Z,10.30
2022-08-20T08:42:27.868Z,13.25
2022-08-20T08:44:57.955Z,11.55
2022-08-20T08:47:29.925Z,11.48
2022-08-20T08:49:59.854Z,12.05
2022-08-20T08:52:31.658Z,12.80
2022-08-20T08:55:03.572Z,20.98
2022-08-20T08:57:33.037Z,23.55
2022-08-20T09:00:06.008Z,14.20
2022-08-20T09:02:38.972Z,12.95
2022-08-20T09:05:15.963Z,21.77
2022-08-20T09:07:49.017Z,12.10
2022-08-20T09:10:17.576Z,12.05
2022-08-20T09:12:52.550Z,11.07
2022-08-20T09:15:22.251Z,11.73
2022-08-20T09:17:51.100Z,11.00
2022-08-20T09:20:22.960Z,14.25
2022-08-20T09:22:56.416Z,28.48
2022-08-20T09:25:25.077Z,13.32
2022-08-20T09:27:54.025Z,12.23
2022-08-20T09:30:23.254Z,12.80
2022-08-20T09:32:52.499Z,12.63
2022-08-20T09:35:22.743Z,12.13
2022-08-20T09:37:53.075Z,13.70
2022-08-20T09:40:22.048Z,16.73
2022-08-20T09:42:51.774Z,14.45
2022-08-20T09:45:21.243Z,13.63
2022-08-20T09:47:57.011Z,12.87
2022-08-20T09:50:29.601Z,12.77
2022-08-20T09:53:00.979Z,13.27
2022-08-20T09:55:34.814Z,13.02
2022-08-20T09:58:06.924Z,18.02
2022-08-20T10:00:35.360Z,16.75
2022-08-20T10:03:03.742Z,14.02
2022-08-20T10:05:33.992Z,13.30
2022-08-20T10:10:34.568Z,13.40
2022-08-20T10:13:03.599Z,13.50
2022-08-20T10:15:33.531Z,14.75
2022-08-20T10:18:05.433Z,15.50
2022-08-20T10:20:36.272Z,13.35
2022-08-20T10:23:05.565Z,13.63
2022-08-20T10:25:35.103Z,13.38
2022-08-20T10:28:03.756Z,13.48
2022-08-20T10:30:32.672Z,14.07
2022-08-20T10:33:01.039Z,13.85
2022-08-20T10:35:30.401Z,14.55
2022-08-20T10:38:00.309Z,13.27
2022-08-20T10:40:29.135Z,14.18
2022-08-20T10:42:57.964Z,13.60
2022-08-20T10:45:26.353Z,13.38
2022-08-20T10:47:55.182Z,13.85
2022-08-20T10:50:23.645Z,12.85
2022-08-20T10:52:52.605Z,12.15
2022-08-20T10:55:22.908Z,12.07
2022-08-20T10:57:51.670Z,12.57
2022-08-20T11:00:20.765Z,13.75
2022-08-20T11:02:49.137Z,13.68
2022-08-20T11:05:17.748Z,14.27
2022-08-20T11:07:54.846Z,14.75
2022-08-20T11:10:28.252Z,13.20
2022-08-20T11:12:56.958Z,13.57
2022-08-20T11:15:25.967Z,15.05
2022-08-20T11:17:55.287Z,13.50
2022-08-20T11:20:26.470Z,17.30
2022-08-20T11:22:55.765Z,25.42
2022-08-20T11:25:26.633Z,34.00
2022-08-20T11:27:56.980Z,32.95
2022-08-20T11:30:28.293Z,33.65
2022-08-20T11:32:57.246Z,16.90
2022-08-20T11:35:48.448Z,14.82
2022-08-20T11:38:16.058Z,14.90
2022-08-20T11:40:46.608Z,16.92
2022-08-20T11:43:17.038Z,14.70
2022-08-20T11:45:48.292Z,16.45
2022-08-20T11:48:18.192Z,13.27
2022-08-20T11:50:47.416Z,16.95
2022-08-20T11:53:16.317Z,17.50
2022-08-20T11:55:46.990Z,16.08
2022-08-20T11:58:16.721Z,16.13
2022-08-20T12:00:45.151Z,14.95
2022-08-20T12:03:14.439Z,15.68
2022-08-20T12:05:45.339Z,18.65
2022-08-20T12:08:27.102Z,17.05
2022-08-20T12:11:01.377Z,16.73
2022-08-20T12:13:48.965Z,17.33
2022-08-20T12:16:18.889Z,17.20
2022-08-20T12:18:48.806Z,15.45
2022-08-20T12:21:17.925Z,16.52
2022-08-20T12:23:46.781Z,15.35
2022-08-20T12:26:17.148Z,12.13
2022-08-20T12:28:46.103Z,14.38
2022-08-20T12:31:14.512Z,13.80
2022-08-20T12:33:43.352Z,13.45
2022-08-20T12:36:12.096Z,13.35
2022-08-20T12:38:41.049Z,14.27
2022-08-20T12:41:09.430Z,12.07
2022-08-20T12:43:39.534Z,12.13
2022-08-20T12:46:08.061Z,14.05
2022-08-20T12:48:37.027Z,12.13
2022-08-20T12:51:05.524Z,13.20
2022-08-20T12:53:34.245Z,13.25
2022-08-20T12:56:05.261Z,13.75
2022-08-20T12:58:34.657Z,12.80
2022-08-20T13:01:04.327Z,12.90
2022-08-20T13:03:32.994Z,12.90
2022-08-20T13:06:09.433Z,13.50
2022-08-20T13:08:38.295Z,21.10
2022-08-20T13:11:06.716Z,13.90
2022-08-20T13:13:35.573Z,13.55
2022-08-20T13:16:05.675Z,14.43
2022-08-20T13:18:34.652Z,12.88
2022-08-20T13:21:03.033Z,13.40
2022-08-20T13:23:31.843Z,11.85
2022-08-20T13:26:00.131Z,17.92
2022-08-20T13:28:28.911Z,10.68
2022-08-20T13:30:57.246Z,12.30
2022-08-20T13:33:27.352Z,11.10
2022-08-20T13:35:56.596Z,10.43
2022-08-20T13:38:25.793Z,10.20
2022-08-20T13:40:55.160Z,10.13
2022-08-20T13:43:23.801Z,9.63
2022-08-20T13:45:52.609Z,10.20
2022-08-20T13:48:21.148Z,10.98
2022-08-20T13:50:51.141Z,18.15
2022-08-20T13:53:19.531Z,10.57
2022-08-20T13:55:48.444Z,11.27
2022-08-20T13:58:17.954Z,13.10
2022-08-20T14:00:47.449Z,12.00
2022-08-20T14:03:19.873Z,7.87
2022-08-20T14:05:55.544Z,5.18
2022-08-20T14:08:25.075Z,4.78
2022-08-20T14:10:54.057Z,5.55
2022-08-20T14:13:24.622Z,4.50
2022-08-20T14:15:53.248Z,4.10
2022-08-20T14:18:22.480Z,4.40
2022-08-20T14:20:51.032Z,4.22
2022-08-20T14:23:21.124Z,4.43
2022-08-20T14:25:50.652Z,4.80
2022-08-20T14:28:21.147Z,4.10
2022-08-20T14:30:52.863Z,4.10
2022-08-20T14:33:23.777Z,4.13
2022-08-20T14:35:54.349Z,4.00
2022-08-20T14:38:24.823Z,3.78
2022-08-20T14:40:53.240Z,3.75
2022-08-20T14:43:22.115Z,3.97
2022-08-20T14:45:51.005Z,4.05
2022-08-20T14:48:19.295Z,4.13
2022-08-20T14:50:48.039Z,5.55
2022-08-20T14:53:16.299Z,4.93
2022-08-20T14:55:46.460Z,5.68
2022-08-20T14:58:16.910Z,4.45
2022-08-20T15:00:46.093Z,3.80
2022-08-20T15:03:14.487Z,4.53
2022-08-20T15:05:43.960Z,7.90
2022-08-20T15:08:13.080Z,6.43
2022-08-20T15:10:41.913Z,8.68
2022-08-20T15:13:12.148Z,11.85
2022-08-20T15:15:41.380Z,6.40
2022-08-20T15:18:10.121Z,4.00
2022-08-20T15:20:39.137Z,7.40
2022-08-20T15:23:08.217Z,8.40
2022-08-20T15:25:38.292Z,18.67
2022-08-20T15:30:40.416Z,10.13
2022-08-20T15:33:09.832Z,6.70
2022-08-20T15:35:38.453Z,8.70
2022-08-20T15:38:07.109Z,14.75
2022-08-20T15:40:36.054Z,19.30
2022-08-20T15:43:05.729Z,12.55
2022-08-20T15:45:36.094Z,8.52
2022-08-20T15:48:12.860Z,4.50
2022-08-20T15:51:01.658Z,3.30
2022-08-20T15:53:36.325Z,3.38
2022-08-20T15:56:12.657Z,3.50
2022-08-20T15:58:52.529Z,3.17
2022-08-20T16:01:28.141Z,3.50
2022-08-20T16:04:29.623Z,3.30
2022-08-20T16:07:04.294Z,3.30
2022-08-20T16:09:42.813Z,3.10
2022-08-20T16:12:15.413Z,3.20
2022-08-20T16:14:47.989Z,3.10
2022-08-20T16:17:20.257Z,3.17
2022-08-20T16:19:57.573Z,3.30
2022-08-20T16:22:30.781Z,3.03
2022-08-20T16:24:59.602Z,2.80
2022-08-20T16:27:35.898Z,3.33
2022-08-20T16:30:08.230Z,3.33
2022-08-20T16:32:45.013Z,3.55
2022-08-20T16:35:30.141Z,3.60
2022-08-20T16:38:07.946Z,3.53
2022-08-20T16:40:44.172Z,3.60
2022-08-20T16:43:24.417Z,4.13
2022-08-20T16:45:56.598Z,4.15
2022-08-20T16:48:34.406Z,4.53
2022-08-20T16:51:09.716Z,4.43
2022-08-20T16:53:38.796Z,4.05
2022-08-20T16:56:07.576Z,3.90
2022-08-20T16:58:37.223Z,3.75
2022-08-20T17:01:10.423Z,3.50
2022-08-20T17:03:40.990Z,3.05
2022-08-20T17:08:51.561Z,3.42
2022-08-20T17:11:26.199Z,3.60
2022-08-20T17:14:10.597Z,3.88
2022-08-20T17:16:42.529Z,3.80
2022-08-20T17:19:15.900Z,3.80
2022-08-20T17:21:46.254Z,3.53
2022-08-20T17:24:25.341Z,4.25
2022-08-20T17:26:59.689Z,3.30
2022-08-20T17:29:31.674Z,3.25
2022-08-20T17:32:02.541Z,3.45
2022-08-20T17:34:34.160Z,3.30
2022-08-20T17:37:08.527Z,3.15
2022-08-20T17:39:47.488Z,3.00
2022-08-20T17:42:20.909Z,3.33
2022-08-20T17:44:53.960Z,3.22
2022-08-20T17:47:27.920Z,3.10
2022-08-20T17:50:03.155Z,3.28
2022-08-20T17:52:40.149Z,3.67
2022-08-20T17:55:11.039Z,3.63
2022-08-20T17:57:44.080Z,3.97
2022-08-20T18:00:18.034Z,4.10
2022-08-20T18:02:46.425Z,4.05
2022-08-20T18:05:19.867Z,4.40
2022-08-20T18:08:06.720Z,3.92
2022-08-20T18:10:43.480Z,4.03
2022-08-20T18:13:19.812Z,4.05
2022-08-20T18:15:55.031Z,4.20
2022-08-20T18:18:32.070Z,3.85
2022-08-20T18:21:37.562Z,4.10
2022-08-20T18:24:12.138Z,5.15
2022-08-20T18:26:47.980Z,4.72
2022-08-20T18:29:27.260Z,4.55
2022-08-20T18:31:59.380Z,4.10
2022-08-20T18:34:38.893Z,4.55
2022-08-20T18:37:22.368Z,4.37
2022-08-20T18:39:53.344Z,4.55
2022-08-20T18:42:28.593Z,4.20
2022-08-20T18:44:57.572Z,4.10
2022-08-20T18:47:30.838Z,4.20
2022-08-20T18:50:06.491Z,3.90
2022-08-20T18:52:47.510Z,3.90
2022-08-20T18:55:30.300Z,4.25
2022-08-20T18:58:01.915Z,4.00
2022-08-20T19:00:40.496Z,4.30
2022-08-20T19:03:19.793Z,4.10
2022-08-20T19:06:11.896Z,4.53
2022-08-20T19:08:47.496Z,3.92
2022-08-20T19:11:50.496Z,4.43
2022-08-20T19:14:33.810Z,4.18
2022-08-20T19:17:06.841Z,4.80
2022-08-20T19:19:35.811Z,6.55
2022-08-20T19:22:04.894Z,4.20
2022-08-20T19:24:37.895Z,4.97
2022-08-20T19:27:12.159Z,7.63
2022-08-20T19:29:47.169Z,5.95
2022-08-20T19:32:20.408Z,4.50
2022-08-20T19:34:53.946Z,4.40
2022-08-20T19:37:35.172Z,4.18
2022-08-20T19:40:22.715Z,5.15
2022-08-20T19:42:58.369Z,4.93
2022-08-20T19:45:31.272Z,5.05
2022-08-20T19:48:12.940Z,5.55
2022-08-20T19:50:51.044Z,5.72
2022-08-20T19:53:30.283Z,4.57
2022-08-20T19:56:01.889Z,5.60
2022-08-20T19:58:33.522Z,4.60
2022-08-20T20:01:04.017Z,4.40
2022-08-20T20:03:37.653Z,7.03
2022-08-20T20:06:17.081Z,7.80
2022-08-20T20:08:53.358Z,9.60
2022-08-20T20:11:29.083Z,4.47
2022-08-20T20:14:05.193Z,4.25
2022-08-20T20:16:36.209Z,4.03
2022-08-20T20:19:25.915Z,4.03
2022-08-20T20:22:06.199Z,3.83
2022-08-20T20:24:43.813Z,4.32
2022-08-20T20:27:20.248Z,4.22
2022-08-20T20:29:59.804Z,3.95
2022-08-20T20:32:30.650Z,3.63
2022-08-20T20:35:05.419Z,4.18
2022-08-20T20:37:50.048Z,3.92
2022-08-20T20:40:27.723Z,3.90
2022-08-20T20:43:00.712Z,3.60
2022-08-20T20:45:35.107Z,4.00
2022-08-20T20:48:15.728Z,3.83
2022-08-20T20:50:47.058Z,4.05
2022-08-20T20:53:25.336Z,3.55
2022-08-20T20:56:03.313Z,3.60
2022-08-20T20:58:32.252Z,3.72
2022-08-20T21:01:02.833Z,3.90
2022-08-20T21:03:31.164Z,4.18
2022-08-20T21:05:59.524Z,3.75
2022-08-20T21:08:28.433Z,3.97
2022-08-20T21:10:57.850Z,3.70
2022-08-20T21:13:26.784Z,3.45
2022-08-20T21:15:55.202Z,3.30
2022-08-20T21:18:26.517Z,3.63
2022-08-20T21:20:55.096Z,3.65
2022-08-20T21:23:39.985Z,3.83
2022-08-20T21:26:10.831Z,4.82
2022-08-20T21:28:39.437Z,3.92
2022-08-20T21:31:07.817Z,16.60
2022-08-20T21:33:37.981Z,17.40
2022-08-20T21:36:07.037Z,7.28
2022-08-20T21:38:35.769Z,8.00
2022-08-20T21:41:04.325Z,4.07
2022-08-20T21:43:33.676Z,3.40
2022-08-20T21:46:05.261Z,3.90
2022-08-20T21:48:34.058Z,3.50
2022-08-20T21:51:04.487Z,3.47
2022-08-20T21:53:32.922Z,3.42
2022-08-20T21:56:02.397Z,2.80
2022-08-20T21:58:30.927Z,2.40
2022-08-20T22:01:02.878Z,2.33
2022-08-20T22:03:34.843Z,2.70
2022-08-20T22:06:10.900Z,3.22
2022-08-20T22:08:39.449Z,4.95
2022-08-20T22:11:11.252Z,2.70
2022-08-20T22:13:41.422Z,3.58
2022-08-20T22:16:12.588Z,2.53
2022-08-20T22:18:41.689Z,2.30
2022-08-20T22:21:16.748Z,2.42
2022-08-20T22:23:45.240Z,2.30
2022-08-20T22:26:13.615Z,2.33
2022-08-20T22:28:42.667Z,2.35
2022-08-20T22:31:11.702Z,2.60
2022-08-20T22:33:40.784Z,3.55
2022-08-20T22:36:09.263Z,3.20
2022-08-20T22:38:39.641Z,4.05
2022-08-20T22:41:09.861Z,2.70
2022-08-20T22:46:26.936Z,2.35
2022-08-20T22:48:56.523Z,2.35
2022-08-20T22:51:32.721Z,2.80
2022-08-20T22:54:07.350Z,2.58
2022-08-20T22:56:35.806Z,2.47
2022-08-20T22:59:05.844Z,2.55
2022-08-20T23:01:34.996Z,4.68
2022-08-20T23:04:08.258Z,6.70
2022-08-20T23:06:37.275Z,4.22
2022-08-20T23:09:07.097Z,3.45
2022-08-20T23:11:36.039Z,6.00
2022-08-20T23:14:04.467Z,6.13
2022-08-20T23:16:33.759Z,4.07
2022-08-20T23:19:02.404Z,3.00
2022-08-20T23:21:31.355Z,2.80
2022-08-20T23:23:59.784Z,2.70
2022-08-20T23:26:30.480Z,3.10
2022-08-20T23:28:58.903Z,2.90
2022-08-20T23:31:27.949Z,3.15
2022-08-20T23:33:56.332Z,8.57
2022-08-20T23:36:26.265Z,5.40
2022-08-20T23:38:54.821Z,3.80
2022-08-20T23:41:25.102Z,5.55
2022-08-20T23:43:54.987Z,3.42
2022-08-20T23:46:27.057Z,4.60
2022-08-20T23:48:56.061Z,6.18
2022-08-20T23:51:25.175Z,5.70
2022-08-20T23:53:54.109Z,3.30
2022-08-20T23:56:22.634Z,2.90
2022-08-20T23:58:51.481Z,3.38
